sensor_id;sensor_type;location;lat;lon;timestamp;temperature;humidity
53643;DHT22;39546;45.534;12.048;2023-05-27T00:04:09;22.80;77.30
53643;DHT22;39546;45.534;12.048;2023-05-27T00:10:11;22.60;77.60
53643;DHT22;39546;45.534;12.048;2023-05-27T00:16:13;22.60;78.00
53643;DHT22;39546;45.534;12.048;2023-05-27T00:22:15;22.60;77.40
53643;DHT22;39546;45.534;12.048;2023-05-27T00:28:29;22.40;77.80
53643;DHT22;39546;45.534;12.048;2023-05-27T00:34:33;22.80;78.00
53643;DHT22;39546;45.534;12.048;2023-05-27T00:40:36;23.00;77.60
53643;DHT22;39546;45.534;12.048;2023-05-27T00:47:14;23.20;77.50
53643;DHT22;39546;45.534;12.048;2023-05-27T00:53:17;22.90;77.50
53643;DHT22;39546;45.534;12.048;2023-05-27T00:59:28;22.90;77.80
53643;DHT22;39546;45.534;12.048;2023-05-27T01:05:30;23.10;77.80
53643;DHT22;39546;45.534;12.048;2023-05-27T01:11:58;23.20;77.80
53643;DHT22;39546;45.534;12.048;2023-05-27T01:18:03;23.30;78.00
53643;DHT22;39546;45.534;12.048;2023-05-27T01:24:06;23.10;78.40
53643;DHT22;39546;45.534;12.048;2023-05-27T01:30:09;23.10;79.20
53643;DHT22;39546;45.534;12.048;2023-05-27T01:36:16;23.00;79.10
53643;DHT22;39546;45.534;12.048;2023-05-27T01:42:19;23.20;78.70
53643;DHT22;39546;45.534;12.048;2023-05-27T01:48:21;23.30;78.40
53643;DHT22;39546;45.534;12.048;2023-05-27T01:54:23;23.20;78.50
53643;DHT22;39546;45.534;12.048;2023-05-27T02:00:26;23.00;78.90
53643;DHT22;39546;45.534;12.048;2023-05-27T02:06:29;23.10;78.90
53643;DHT22;39546;45.534;12.048;2023-05-27T02:12:31;23.20;78.90
53643;DHT22;39546;45.534;12.048;2023-05-27T02:18:35;23.10;78.70
53643;DHT22;39546;45.534;12.048;2023-05-27T02:24:37;23.10;78.70
53643;DHT22;39546;45.534;12.048;2023-05-27T02:30:39;23.20;78.60
53643;DHT22;39546;45.534;12.048;2023-05-27T02:36:41;23.20;78.80
53643;DHT22;39546;45.534;12.048;2023-05-27T02:42:43;23.20;78.90
53643;DHT22;39546;45.534;12.048;2023-05-27T02:48:46;23.00;78.90
53643;DHT22;39546;45.534;12.048;2023-05-27T02:54:49;22.90;79.00
53643;DHT22;39546;45.534;12.048;2023-05-27T03:00:51;22.70;78.80
53643;DHT22;39546;45.534;12.048;2023-05-27T03:06:53;22.60;79.00
53643;DHT22;39546;45.534;12.048;2023-05-27T03:13:20;22.50;79.10
53643;DHT22;39546;45.534;12.048;2023-05-27T03:19:22;22.50;79.00
53643;DHT22;39546;45.534;12.048;2023-05-27T03:25:24;22.40;79.10
53643;DHT22;39546;45.534;12.048;2023-05-27T03:31:26;22.30;79.00
53643;DHT22;39546;45.534;12.048;2023-05-27T03:37:29;22.30;79.10
53643;DHT22;39546;45.534;12.048;2023-05-27T03:43:32;22.30;79.20
53643;DHT22;39546;45.534;12.048;2023-05-27T03:49:34;22.50;79.10
53643;DHT22;39546;45.534;12.048;2023-05-27T03:55:37;22.40;78.90
53643;DHT22;39546;45.534;12.048;2023-05-27T04:01:39;22.50;79.00
53643;DHT22;39546;45.534;12.048;2023-05-27T04:07:41;22.50;78.90
53643;DHT22;39546;45.534;12.048;2023-05-27T04:13:44;22.60;78.70
53643;DHT22;39546;45.534;12.048;2023-05-27T04:19:46;22.50;78.60
53643;DHT22;39546;45.534;12.048;2023-05-27T04:25:50;22.50;78.70
53643;DHT22;39546;45.534;12.048;2023-05-27T04:31:54;22.60;78.90
53643;DHT22;39546;45.534;12.048;2023-05-27T04:37:59;22.60;78.80
53643;DHT22;39546;45.534;12.048;2023-05-27T04:44:02;22.70;78.80
53643;DHT22;39546;45.534;12.048;2023-05-27T04:50:13;22.80;78.70
53643;DHT22;39546;45.534;12.048;2023-05-27T04:56:15;22.70;78.90
53643;DHT22;39546;45.534;12.048;2023-05-27T05:02:19;22.60;78.90
53643;DHT22;39546;45.534;12.048;2023-05-27T05:08:36;22.50;79.10
53643;DHT22;39546;45.534;12.048;2023-05-27T05:14:38;22.60;79.20
53643;DHT22;39546;45.534;12.048;2023-05-27T05:20:40;22.80;79.40
53643;DHT22;39546;45.534;12.048;2023-05-27T05:26:43;23.00;79.50
53643;DHT22;39546;45.534;12.048;2023-05-27T05:32:46;23.30;79.40
53643;DHT22;39546;45.534;12.048;2023-05-27T05:38:49;23.30;79.20
53643;DHT22;39546;45.534;12.048;2023-05-27T05:44:52;23.30;79.20
53643;DHT22;39546;45.534;12.048;2023-05-27T05:50:54;23.30;79.10
53643;DHT22;39546;45.534;12.048;2023-05-27T05:56:57;23.20;79.40
53643;DHT22;39546;45.534;12.048;2023-05-27T06:03:00;23.00;79.60
53643;DHT22;39546;45.534;12.048;2023-05-27T06:09:05;23.20;79.50
53643;DHT22;39546;45.534;12.048;2023-05-27T06:15:08;23.30;79.30
53643;DHT22;39546;45.534;12.048;2023-05-27T06:21:12;23.50;79.00
53643;DHT22;39546;45.534;12.048;2023-05-27T06:27:18;23.70;78.50
53643;DHT22;39546;45.534;12.048;2023-05-27T06:33:21;23.80;78.30
53643;DHT22;39546;45.534;12.048;2023-05-27T06:39:23;24.00;78.30
53643;DHT22;39546;45.534;12.048;2023-05-27T06:45:25;24.10;78.10
53643;DHT22;39546;45.534;12.048;2023-05-27T06:51:28;24.20;77.80
53643;DHT22;39546;45.534;12.048;2023-05-27T06:57:31;24.20;77.90
53643;DHT22;39546;45.534;12.048;2023-05-27T07:03:34;24.30;78.10
53643;DHT22;39546;45.534;12.048;2023-05-27T07:09:37;24.30;77.90
53643;DHT22;39546;45.534;12.048;2023-05-27T07:15:40;24.40;77.60
53643;DHT22;39546;45.534;12.048;2023-05-27T07:21:42;24.40;77.40
53643;DHT22;39546;45.534;12.048;2023-05-27T07:27:45;24.40;77.70
53643;DHT22;39546;45.534;12.048;2023-05-27T07:33:48;24.40;77.80
53643;DHT22;39546;45.534;12.048;2023-05-27T07:39:50;24.60;78.10
53643;DHT22;39546;45.534;12.048;2023-05-27T07:45:53;24.80;78.20
53643;DHT22;39546;45.534;12.048;2023-05-27T07:51:55;24.70;77.80
53643;DHT22;39546;45.534;12.048;2023-05-27T07:57:57;24.60;77.10
53643;DHT22;39546;45.534;12.048;2023-05-27T08:04:00;24.70;76.20
53643;DHT22;39546;45.534;12.048;2023-05-27T08:10:03;24.70;75.80
53643;DHT22;39546;45.534;12.048;2023-05-27T08:16:08;24.70;74.70
53643;DHT22;39546;45.534;12.048;2023-05-27T08:22:11;24.80;74.90
53643;DHT22;39546;45.534;12.048;2023-05-27T08:28:13;24.90;74.80
53643;DHT22;39546;45.534;12.048;2023-05-27T08:34:18;25.00;74.60
53643;DHT22;39546;45.534;12.048;2023-05-27T08:40:20;25.00;73.70
53643;DHT22;39546;45.534;12.048;2023-05-27T08:46:22;25.20;73.60
53643;DHT22;39546;45.534;12.048;2023-05-27T08:52:27;25.30;74.70
53643;DHT22;39546;45.534;12.048;2023-05-27T08:58:30;25.40;74.80
53643;DHT22;39546;45.534;12.048;2023-05-27T09:04:33;25.40;73.50
53643;DHT22;39546;45.534;12.048;2023-05-27T09:10:39;25.60;73.30
53643;DHT22;39546;45.534;12.048;2023-05-27T09:16:43;25.60;73.20
53643;DHT22;39546;45.534;12.048;2023-05-27T09:22:55;25.70;72.60
53643;DHT22;39546;45.534;12.048;2023-05-27T09:28:58;25.80;71.60
53643;DHT22;39546;45.534;12.048;2023-05-27T09:35:06;25.80;70.50
53643;DHT22;39546;45.534;12.048;2023-05-27T09:41:09;25.90;70.30
53643;DHT22;39546;45.534;12.048;2023-05-27T09:47:11;26.00;70.10
53643;DHT22;39546;45.534;12.048;2023-05-27T09:53:16;26.10;69.60
53643;DHT22;39546;45.534;12.048;2023-05-27T09:59:22;26.30;69.30
53643;DHT22;39546;45.534;12.048;2023-05-27T10:05:24;26.30;69.30
53643;DHT22;39546;45.534;12.048;2023-05-27T10:11:35;26.30;67.80
53643;DHT22;39546;45.534;12.048;2023-05-27T10:17:53;26.40;67.30
53643;DHT22;39546;45.534;12.048;2023-05-27T10:29:59;26.60;65.70
53643;DHT22;39546;45.534;12.048;2023-05-27T10:42:42;26.90;64.20
53643;DHT22;39546;45.534;12.048;2023-05-27T10:48:45;27.10;63.50
53643;DHT22;39546;45.534;12.048;2023-05-27T10:54:48;27.30;63.40
53643;DHT22;39546;45.534;12.048;2023-05-27T11:01:03;27.50;62.00
53643;DHT22;39546;45.534;12.048;2023-05-27T11:07:09;27.70;63.00
53643;DHT22;39546;45.534;12.048;2023-05-27T11:13:11;27.80;63.20
53643;DHT22;39546;45.534;12.048;2023-05-27T11:19:13;28.00;62.10
53643;DHT22;39546;45.534;12.048;2023-05-27T11:25:15;28.00;59.90
53643;DHT22;39546;45.534;12.048;2023-05-27T11:31:20;28.20;59.20
53643;DHT22;39546;45.534;12.048;2023-05-27T11:37:56;28.30;59.00
53643;DHT22;39546;45.534;12.048;2023-05-27T11:43:59;28.50;58.10
53643;DHT22;39546;45.534;12.048;2023-05-27T11:50:03;28.60;58.10
53643;DHT22;39546;45.534;12.048;2023-05-27T11:56:05;28.80;57.80
53643;DHT22;39546;45.534;12.048;2023-05-27T12:02:07;28.80;57.40
53643;DHT22;39546;45.534;12.048;2023-05-27T12:08:09;28.90;57.00
53643;DHT22;39546;45.534;12.048;2023-05-27T12:14:11;28.80;57.00
53643;DHT22;39546;45.534;12.048;2023-05-27T12:20:14;28.80;57.20
53643;DHT22;39546;45.534;12.048;2023-05-27T12:26:16;28.80;57.30
53643;DHT22;39546;45.534;12.048;2023-05-27T12:32:19;28.90;56.30
53643;DHT22;39546;45.534;12.048;2023-05-27T12:38:22;29.00;56.30
53643;DHT22;39546;45.534;12.048;2023-05-27T12:44:25;29.00;56.90
53643;DHT22;39546;45.534;12.048;2023-05-27T12:50:27;28.90;57.90
53643;DHT22;39546;45.534;12.048;2023-05-27T12:56:29;28.70;56.60
53643;DHT22;39546;45.534;12.048;2023-05-27T13:02:31;28.50;56.30
53643;DHT22;39546;45.534;12.048;2023-05-27T13:08:35;28.60;55.60
53643;DHT22;39546;45.534;12.048;2023-05-27T13:15:31;28.80;55.60
53643;DHT22;39546;45.534;12.048;2023-05-27T13:21:34;28.80;55.20
53643;DHT22;39546;45.534;12.048;2023-05-27T13:27:38;28.70;55.20
53643;DHT22;39546;45.534;12.048;2023-05-27T13:33:43;28.60;57.00
53643;DHT22;39546;45.534;12.048;2023-05-27T13:39:45;28.60;56.00
53643;DHT22;39546;45.534;12.048;2023-05-27T13:45:47;28.60;55.90
53643;DHT22;39546;45.534;12.048;2023-05-27T13:51:49;28.70;55.50
53643;DHT22;39546;45.534;12.048;2023-05-27T13:57:52;28.80;55.20
53643;DHT22;39546;45.534;12.048;2023-05-27T14:03:54;28.80;55.30
53643;DHT22;39546;45.534;12.048;2023-05-27T14:09:56;28.90;54.60
53643;DHT22;39546;45.534;12.048;2023-05-27T14:15:58;28.90;55.00
53643;DHT22;39546;45.534;12.048;2023-05-27T14:22:00;28.90;55.20
53643;DHT22;39546;45.534;12.048;2023-05-27T14:28:02;29.10;54.80
53643;DHT22;39546;45.534;12.048;2023-05-27T14:34:07;29.00;54.70
53643;DHT22;39546;45.534;12.048;2023-05-27T14:40:10;28.90;54.90
53643;DHT22;39546;45.534;12.048;2023-05-27T14:46:12;28.70;55.10
53643;DHT22;39546;45.534;12.048;2023-05-27T14:52:14;28.60;56.40
53643;DHT22;39546;45.534;12.048;2023-05-27T14:58:16;28.40;57.70
53643;DHT22;39546;45.534;12.048;2023-05-27T15:04:19;28.50;57.00
53643;DHT22;39546;45.534;12.048;2023-05-27T15:10:21;28.50;56.90
53643;DHT22;39546;45.534;12.048;2023-05-27T15:16:23;28.40;56.90
53643;DHT22;39546;45.534;12.048;2023-05-27T15:22:25;28.40;57.00
53643;DHT22;39546;45.534;12.048;2023-05-27T15:28:27;28.40;57.00
53643;DHT22;39546;45.534;12.048;2023-05-27T15:34:29;28.50;57.10
53643;DHT22;39546;45.534;12.048;2023-05-27T15:40:31;28.60;56.70
53643;DHT22;39546;45.534;12.048;2023-05-27T15:46:34;28.70;56.30
53643;DHT22;39546;45.534;12.048;2023-05-27T15:52:37;28.90;56.30
53643;DHT22;39546;45.534;12.048;2023-05-27T15:58:39;28.90;55.90
53643;DHT22;39546;45.534;12.048;2023-05-27T16:04:42;28.90;56.40
53643;DHT22;39546;45.534;12.048;2023-05-27T16:10:51;29.00;56.30
53643;DHT22;39546;45.534;12.048;2023-05-27T16:16:54;29.10;56.50
53643;DHT22;39546;45.534;12.048;2023-05-27T16:22:56;29.10;58.00
53643;DHT22;39546;45.534;12.048;2023-05-27T16:28:58;29.10;57.50
53643;DHT22;39546;45.534;12.048;2023-05-27T16:35:01;29.20;57.00
53643;DHT22;39546;45.534;12.048;2023-05-27T16:41:03;29.20;56.60
53643;DHT22;39546;45.534;12.048;2023-05-27T16:47:05;29.20;57.30
53643;DHT22;39546;45.534;12.048;2023-05-27T16:53:08;29.20;57.10
53643;DHT22;39546;45.534;12.048;2023-05-27T16:59:10;29.00;57.30
53643;DHT22;39546;45.534;12.048;2023-05-27T17:05:13;28.80;57.70
53643;DHT22;39546;45.534;12.048;2023-05-27T17:11:15;28.70;58.00
53643;DHT22;39546;45.534;12.048;2023-05-27T17:17:17;28.60;58.00
53643;DHT22;39546;45.534;12.048;2023-05-27T17:23:19;28.40;58.30
53643;DHT22;39546;45.534;12.048;2023-05-27T17:29:21;28.30;58.40
53643;DHT22;39546;45.534;12.048;2023-05-27T17:35:23;28.20;58.60
53643;DHT22;39546;45.534;12.048;2023-05-27T17:41:25;28.10;59.00
53643;DHT22;39546;45.534;12.048;2023-05-27T17:47:28;28.00;59.20
53643;DHT22;39546;45.534;12.048;2023-05-27T17:53:30;27.90;59.40
53643;DHT22;39546;45.534;12.048;2023-05-27T17:59:32;27.90;59.90
53643;DHT22;39546;45.534;12.048;2023-05-27T18:05:34;27.80;60.30
53643;DHT22;39546;45.534;12.048;2023-05-27T18:11:36;27.80;60.60
53643;DHT22;39546;45.534;12.048;2023-05-27T18:17:39;27.80;60.80
53643;DHT22;39546;45.534;12.048;2023-05-27T18:23:40;27.70;61.30
53643;DHT22;39546;45.534;12.048;2023-05-27T18:29:43;27.60;62.60
53643;DHT22;39546;45.534;12.048;2023-05-27T18:35:45;27.50;63.70
53643;DHT22;39546;45.534;12.048;2023-05-27T18:41:47;27.40;64.00
53643;DHT22;39546;45.534;12.048;2023-05-27T18:47:49;27.30;64.20
53643;DHT22;39546;45.534;12.048;2023-05-27T18:53:51;27.30;64.70
53643;DHT22;39546;45.534;12.048;2023-05-27T18:59:54;27.30;65.90
53643;DHT22;39546;45.534;12.048;2023-05-27T19:05:56;27.20;67.00
53643;DHT22;39546;45.534;12.048;2023-05-27T19:11:58;27.10;67.30
53643;DHT22;39546;45.534;12.048;2023-05-27T19:18:00;27.10;67.10
53643;DHT22;39546;45.534;12.048;2023-05-27T19:24:02;27.00;67.10
53643;DHT22;39546;45.534;12.048;2023-05-27T19:30:05;27.00;67.50
53643;DHT22;39546;45.534;12.048;2023-05-27T19:36:08;26.90;67.80
53643;DHT22;39546;45.534;12.048;2023-05-27T19:42:10;26.80;68.00
53643;DHT22;39546;45.534;12.048;2023-05-27T19:48:12;26.80;68.30
53643;DHT22;39546;45.534;12.048;2023-05-27T19:54:14;26.70;68.60
53643;DHT22;39546;45.534;12.048;2023-05-27T20:00:17;26.70;69.00
53643;DHT22;39546;45.534;12.048;2023-05-27T20:06:20;26.50;69.20
53643;DHT22;39546;45.534;12.048;2023-05-27T20:12:43;26.50;69.50
53643;DHT22;39546;45.534;12.048;2023-05-27T20:18:45;26.50;69.80
53643;DHT22;39546;45.534;12.048;2023-05-27T20:24:47;26.40;70.70
53643;DHT22;39546;45.534;12.048;2023-05-27T20:30:49;26.30;70.80
53643;DHT22;39546;45.534;12.048;2023-05-27T20:36:53;26.30;71.00
53643;DHT22;39546;45.534;12.048;2023-05-27T20:42:55;26.20;71.10
53643;DHT22;39546;45.534;12.048;2023-05-27T20:48:57;26.10;71.10
53643;DHT22;39546;45.534;12.048;2023-05-27T20:55:00;26.00;71.30
53643;DHT22;39546;45.534;12.048;2023-05-27T21:01:02;26.00;71.60
53643;DHT22;39546;45.534;12.048;2023-05-27T21:07:04;26.00;72.00
53643;DHT22;39546;45.534;12.048;2023-05-27T21:13:06;25.90;72.90
53643;DHT22;39546;45.534;12.048;2023-05-27T21:19:09;25.90;72.80
53643;DHT22;39546;45.534;12.048;2023-05-27T21:25:11;25.80;72.90
53643;DHT22;39546;45.534;12.048;2023-05-27T21:31:13;25.80;73.10
53643;DHT22;39546;45.534;12.048;2023-05-27T21:37:15;25.80;73.10
53643;DHT22;39546;45.534;12.048;2023-05-27T21:43:17;25.80;73.40
53643;DHT22;39546;45.534;12.048;2023-05-27T21:49:19;25.70;74.20
53643;DHT22;39546;45.534;12.048;2023-05-27T21:55:22;25.70;74.50
53643;DHT22;39546;45.534;12.048;2023-05-27T22:01:24;25.50;75.30
53643;DHT22;39546;45.534;12.048;2023-05-27T22:07:26;25.40;75.30
53643;DHT22;39546;45.534;12.048;2023-05-27T22:13:28;25.30;75.00
53643;DHT22;39546;45.534;12.048;2023-05-27T22:19:30;25.30;75.10
53643;DHT22;39546;45.534;12.048;2023-05-27T22:25:32;25.30;75.10
53643;DHT22;39546;45.534;12.048;2023-05-27T22:31:34;25.30;75.00
53643;DHT22;39546;45.534;12.048;2023-05-27T22:37:36;25.30;75.50
53643;DHT22;39546;45.534;12.048;2023-05-27T22:43:38;25.30;75.40
53643;DHT22;39546;45.534;12.048;2023-05-27T22:49:40;25.20;75.40
53643;DHT22;39546;45.534;12.048;2023-05-27T22:55:42;25.20;75.40
53643;DHT22;39546;45.534;12.048;2023-05-27T23:01:44;25.20;75.60
53643;DHT22;39546;45.534;12.048;2023-05-27T23:07:46;25.20;75.70
53643;DHT22;39546;45.534;12.048;2023-05-27T23:13:48;25.10;76.30
53643;DHT22;39546;45.534;12.048;2023-05-27T23:19:50;25.00;76.60
53643;DHT22;39546;45.534;12.048;2023-05-27T23:25:52;25.00;76.80
53643;DHT22;39546;45.534;12.048;2023-05-27T23:31:54;24.90;77.10
53643;DHT22;39546;45.534;12.048;2023-05-27T23:37:58;24.80;77.50
53643;DHT22;39546;45.534;12.048;2023-05-27T23:44:00;24.80;77.70
53643;DHT22;39546;45.534;12.048;2023-05-27T23:50:03;24.70;77.50
53643;DHT22;39546;45.534;12.048;2023-05-27T23:56:06;24.50;77.50
